sensor_id;sensor_type;location;lat;lon;timestamp;temperature;humidity
19970;DHT22;10146;47.754;9.566;2023-08-20T00:00:36;22.80;99.90
19970;DHT22;10146;47.754;9.566;2023-08-20T00:03:12;22.80;99.90
19970;DHT22;10146;47.754;9.566;2023-08-20T00:05:39;22.80;99.90
19970;DHT22;10146;47.754;9.566;2023-08-20T00:08:05;22.80;99.90
19970;DHT22;10146;47.754;9.566;2023-08-20T00:10:31;22.80;99.90
19970;DHT22;10146;47.754;9.566;2023-08-20T00:12:57;22.80;99.90
19970;DHT22;10146;47.754;9.566;2023-08-20T00:15:23;22.80;99.90
19970;DHT22;10146;47.754;9.566;2023-08-20T00:17:52;22.70;99.90
19970;DHT22;10146;47.754;9.566;2023-08-20T00:20:18;22.70;99.90
19970;DHT22;10146;47.754;9.566;2023-08-20T00:22:45;22.50;99.90
19970;DHT22;10146;47.754;9.566;2023-08-20T00:25:12;22.30;99.90
19970;DHT22;10146;47.754;9.566;2023-08-20T00:27:42;22.30;99.90
19970;DHT22;10146;47.754;9.566;2023-08-20T00:30:09;22.20;99.90
19970;DHT22;10146;47.754;9.566;2023-08-20T00:32:35;22.20;99.90
19970;DHT22;10146;47.754;9.566;2023-08-20T00:35:01;22.20;99.90
19970;DHT22;10146;47.754;9.566;2023-08-20T00:37:30;22.10;99.90
19970;DHT22;10146;47.754;9.566;2023-08-20T00:39:56;22.00;99.90
19970;DHT22;10146;47.754;9.566;2023-08-20T00:42:24;21.90;99.90
19970;DHT22;10146;47.754;9.566;2023-08-20T00:44:51;21.80;99.90
19970;DHT22;10146;47.754;9.566;2023-08-20T00:47:18;21.80;99.90
19970;DHT22;10146;47.754;9.566;2023-08-20T00:49:43;21.80;99.90
19970;DHT22;10146;47.754;9.566;2023-08-20T00:52:11;21.80;99.90
19970;DHT22;10146;47.754;9.566;2023-08-20T00:54:39;21.70;99.90
19970;DHT22;10146;47.754;9.566;2023-08-20T00:57:06;21.70;99.90
19970;DHT22;10146;47.754;9.566;2023-08-20T00:59:32;21.70;99.90
19970;DHT22;10146;47.754;9.566;2023-08-20T01:01:59;21.70;99.90
19970;DHT22;10146;47.754;9.566;2023-08-20T01:04:25;21.70;99.90
19970;DHT22;10146;47.754;9.566;2023-08-20T01:07:00;21.60;99.90
19970;DHT22;10146;47.754;9.566;2023-08-20T01:10:04;21.70;99.90
19970;DHT22;10146;47.754;9.566;2023-08-20T01:12:34;21.50;99.90
19970;DHT22;10146;47.754;9.566;2023-08-20T01:15:00;21.50;99.90
19970;DHT22;10146;47.754;9.566;2023-08-20T01:17:25;21.40;99.90
19970;DHT22;10146;47.754;9.566;2023-08-20T01:19:51;21.30;99.90
19970;DHT22;10146;47.754;9.566;2023-08-20T01:30:20;21.10;99.90
19970;DHT22;10146;47.754;9.566;2023-08-20T01:32:50;21.10;99.90
19970;DHT22;10146;47.754;9.566;2023-08-20T01:35:17;21.00;99.90
19970;DHT22;10146;47.754;9.566;2023-08-20T01:37:44;20.90;99.90
19970;DHT22;10146;47.754;9.566;2023-08-20T01:40:10;21.00;99.90
19970;DHT22;10146;47.754;9.566;2023-08-20T01:42:39;20.90;99.90
19970;DHT22;10146;47.754;9.566;2023-08-20T01:45:06;20.90;99.90
19970;DHT22;10146;47.754;9.566;2023-08-20T01:47:33;20.90;99.90
19970;DHT22;10146;47.754;9.566;2023-08-20T01:49:58;21.00;99.90
19970;DHT22;10146;47.754;9.566;2023-08-20T01:52:24;20.90;99.90
19970;DHT22;10146;47.754;9.566;2023-08-20T01:54:50;20.80;99.90
19970;DHT22;10146;47.754;9.566;2023-08-20T01:57:16;20.80;99.90
19970;DHT22;10146;47.754;9.566;2023-08-20T01:59:42;20.80;99.90
19970;DHT22;10146;47.754;9.566;2023-08-20T02:02:08;20.80;99.90
19970;DHT22;10146;47.754;9.566;2023-08-20T02:04:33;20.80;99.90
19970;DHT22;10146;47.754;9.566;2023-08-20T02:06:59;20.70;99.90
19970;DHT22;10146;47.754;9.566;2023-08-20T02:09:25;20.70;99.90
19970;DHT22;10146;47.754;9.566;2023-08-20T02:11:51;20.70;99.90
19970;DHT22;10146;47.754;9.566;2023-08-20T02:14:17;20.60;99.90
19970;DHT22;10146;47.754;9.566;2023-08-20T02:16:45;20.70;99.90
19970;DHT22;10146;47.754;9.566;2023-08-20T02:19:11;20.60;99.90
19970;DHT22;10146;47.754;9.566;2023-08-20T02:21:37;20.60;99.90
19970;DHT22;10146;47.754;9.566;2023-08-20T02:24:03;20.50;99.90
19970;DHT22;10146;47.754;9.566;2023-08-20T02:26:28;20.60;99.90
19970;DHT22;10146;47.754;9.566;2023-08-20T02:28:54;20.60;99.90
19970;DHT22;10146;47.754;9.566;2023-08-20T02:31:19;20.60;99.90
19970;DHT22;10146;47.754;9.566;2023-08-20T02:33:45;20.50;99.90
19970;DHT22;10146;47.754;9.566;2023-08-20T02:36:10;20.50;99.90
19970;DHT22;10146;47.754;9.566;2023-08-20T02:38:36;20.50;99.90
19970;DHT22;10146;47.754;9.566;2023-08-20T02:41:02;20.50;99.90
19970;DHT22;10146;47.754;9.566;2023-08-20T02:43:30;20.40;99.90
19970;DHT22;10146;47.754;9.566;2023-08-20T02:45:56;20.50;99.90
19970;DHT22;10146;47.754;9.566;2023-08-20T02:48:22;20.40;99.90
19970;DHT22;10146;47.754;9.566;2023-08-20T02:50:53;20.50;99.90
19970;DHT22;10146;47.754;9.566;2023-08-20T02:53:19;20.50;99.90
19970;DHT22;10146;47.754;9.566;2023-08-20T02:55:44;20.40;99.90
19970;DHT22;10146;47.754;9.566;2023-08-20T02:58:10;20.30;99.90
19970;DHT22;10146;47.754;9.566;2023-08-20T03:00:35;20.30;99.90
19970;DHT22;10146;47.754;9.566;2023-08-20T03:03:02;20.30;99.90
19970;DHT22;10146;47.754;9.566;2023-08-20T03:05:34;20.30;99.90
19970;DHT22;10146;47.754;9.566;2023-08-20T03:08:00;20.30;99.90
19970;DHT22;10146;47.754;9.566;2023-08-20T03:10:27;20.20;99.90
19970;DHT22;10146;47.754;9.566;2023-08-20T03:12:53;20.10;99.90
19970;DHT22;10146;47.754;9.566;2023-08-20T03:15:18;20.20;99.90
19970;DHT22;10146;47.754;9.566;2023-08-20T03:17:44;20.10;99.90
19970;DHT22;10146;47.754;9.566;2023-08-20T03:20:10;20.10;99.90
19970;DHT22;10146;47.754;9.566;2023-08-20T03:22:36;20.00;99.90
19970;DHT22;10146;47.754;9.566;2023-08-20T03:25:02;19.90;99.90
19970;DHT22;10146;47.754;9.566;2023-08-20T03:27:28;19.90;99.90
19970;DHT22;10146;47.754;9.566;2023-08-20T03:29:54;20.00;99.90
19970;DHT22;10146;47.754;9.566;2023-08-20T03:32:19;20.00;99.90
19970;DHT22;10146;47.754;9.566;2023-08-20T03:34:45;19.90;99.90
19970;DHT22;10146;47.754;9.566;2023-08-20T03:37:11;19.90;99.90
19970;DHT22;10146;47.754;9.566;2023-08-20T03:39:37;19.90;99.90
19970;DHT22;10146;47.754;9.566;2023-08-20T03:42:03;19.80;99.90
19970;DHT22;10146;47.754;9.566;2023-08-20T03:44:28;19.80;99.90
19970;DHT22;10146;47.754;9.566;2023-08-20T03:46:55;19.80;99.90
19970;DHT22;10146;47.754;9.566;2023-08-20T03:49:20;19.70;99.90
19970;DHT22;10146;47.754;9.566;2023-08-20T03:51:47;19.70;99.90
19970;DHT22;10146;47.754;9.566;2023-08-20T03:54:13;19.70;99.90
19970;DHT22;10146;47.754;9.566;2023-08-20T03:56:38;19.70;99.90
19970;DHT22;10146;47.754;9.566;2023-08-20T03:59:04;19.60;99.90
19970;DHT22;10146;47.754;9.566;2023-08-20T04:01:29;19.60;99.90
19970;DHT22;10146;47.754;9.566;2023-08-20T04:03:55;19.60;99.90
19970;DHT22;10146;47.754;9.566;2023-08-20T04:06:21;19.60;99.90
19970;DHT22;10146;47.754;9.566;2023-08-20T04:08:46;19.60;99.90
19970;DHT22;10146;47.754;9.566;2023-08-20T04:11:12;19.50;99.90
19970;DHT22;10146;47.754;9.566;2023-08-20T04:13:37;19.60;99.90
19970;DHT22;10146;47.754;9.566;2023-08-20T04:16:05;19.50;99.90
19970;DHT22;10146;47.754;9.566;2023-08-20T04:18:30;19.50;99.90
19970;DHT22;10146;47.754;9.566;2023-08-20T04:20:56;19.50;99.90
19970;DHT22;10146;47.754;9.566;2023-08-20T04:23:23;19.50;99.90
19970;DHT22;10146;47.754;9.566;2023-08-20T04:25:48;19.60;99.90
19970;DHT22;10146;47.754;9.566;2023-08-20T04:28:14;19.60;99.90
19970;DHT22;10146;47.754;9.566;2023-08-20T04:30:39;19.50;99.90
19970;DHT22;10146;47.754;9.566;2023-08-20T04:33:05;19.60;99.90
19970;DHT22;10146;47.754;9.566;2023-08-20T04:35:31;19.60;99.90
19970;DHT22;10146;47.754;9.566;2023-08-20T04:37:57;19.60;99.90
19970;DHT22;10146;47.754;9.566;2023-08-20T04:40:22;19.60;99.90
19970;DHT22;10146;47.754;9.566;2023-08-20T04:42:48;19.60;99.90
19970;DHT22;10146;47.754;9.566;2023-08-20T04:45:14;19.60;99.90
19970;DHT22;10146;47.754;9.566;2023-08-20T04:47:42;19.60;99.90
19970;DHT22;10146;47.754;9.566;2023-08-20T04:50:08;19.50;99.90
19970;DHT22;10146;47.754;9.566;2023-08-20T04:52:34;19.40;99.90
19970;DHT22;10146;47.754;9.566;2023-08-20T04:55:00;19.40;99.90
19970;DHT22;10146;47.754;9.566;2023-08-20T04:57:26;19.40;99.90
19970;DHT22;10146;47.754;9.566;2023-08-20T04:59:51;19.40;99.90
19970;DHT22;10146;47.754;9.566;2023-08-20T05:02:17;19.40;99.90
19970;DHT22;10146;47.754;9.566;2023-08-20T05:04:42;19.40;99.90
19970;DHT22;10146;47.754;9.566;2023-08-20T05:07:08;19.50;99.90
19970;DHT22;10146;47.754;9.566;2023-08-20T05:09:34;19.50;99.90
19970;DHT22;10146;47.754;9.566;2023-08-20T05:12:00;19.50;99.90
19970;DHT22;10146;47.754;9.566;2023-08-20T05:14:25;19.60;99.90
19970;DHT22;10146;47.754;9.566;2023-08-20T05:16:51;19.70;99.90
19970;DHT22;10146;47.754;9.566;2023-08-20T05:19:16;19.70;99.90
19970;DHT22;10146;47.754;9.566;2023-08-20T05:21:42;19.80;99.90
19970;DHT22;10146;47.754;9.566;2023-08-20T05:24:08;19.90;99.90
19970;DHT22;10146;47.754;9.566;2023-08-20T05:26:34;19.90;99.90
19970;DHT22;10146;47.754;9.566;2023-08-20T05:29:00;19.90;99.90
19970;DHT22;10146;47.754;9.566;2023-08-20T05:31:25;19.90;99.90
19970;DHT22;10146;47.754;9.566;2023-08-20T05:33:51;20.00;99.90
19970;DHT22;10146;47.754;9.566;2023-08-20T05:36:16;20.00;99.90
19970;DHT22;10146;47.754;9.566;2023-08-20T05:38:42;20.00;99.90
19970;DHT22;10146;47.754;9.566;2023-08-20T05:41:08;20.10;99.90
19970;DHT22;10146;47.754;9.566;2023-08-20T05:43:34;20.20;99.90
19970;DHT22;10146;47.754;9.566;2023-08-20T05:46:02;20.30;99.90
19970;DHT22;10146;47.754;9.566;2023-08-20T05:48:28;20.40;99.90
19970;DHT22;10146;47.754;9.566;2023-08-20T05:50:53;20.50;99.90
19970;DHT22;10146;47.754;9.566;2023-08-20T05:53:19;20.50;99.90
19970;DHT22;10146;47.754;9.566;2023-08-20T05:55:45;20.60;99.90
19970;DHT22;10146;47.754;9.566;2023-08-20T05:58:11;20.70;99.90
19970;DHT22;10146;47.754;9.566;2023-08-20T06:00:36;20.80;99.90
19970;DHT22;10146;47.754;9.566;2023-08-20T06:03:02;20.90;99.90
19970;DHT22;10146;47.754;9.566;2023-08-20T06:05:27;21.10;99.90
19970;DHT22;10146;47.754;9.566;2023-08-20T06:07:53;21.20;99.90
19970;DHT22;10146;47.754;9.566;2023-08-20T06:10:19;21.40;99.90
19970;DHT22;10146;47.754;9.566;2023-08-20T06:12:44;21.50;99.90
19970;DHT22;10146;47.754;9.566;2023-08-20T06:15:10;21.80;99.90
19970;DHT22;10146;47.754;9.566;2023-08-20T06:17:35;21.90;99.90
19970;DHT22;10146;47.754;9.566;2023-08-20T06:20:01;21.80;99.90
19970;DHT22;10146;47.754;9.566;2023-08-20T06:22:27;21.90;99.90
19970;DHT22;10146;47.754;9.566;2023-08-20T06:24:52;22.00;99.90
19970;DHT22;10146;47.754;9.566;2023-08-20T06:27:18;22.00;99.90
19970;DHT22;10146;47.754;9.566;2023-08-20T06:29:43;22.20;99.90
19970;DHT22;10146;47.754;9.566;2023-08-20T06:32:09;22.30;99.90
19970;DHT22;10146;47.754;9.566;2023-08-20T06:34:34;22.50;99.90
19970;DHT22;10146;47.754;9.566;2023-08-20T06:37:01;22.60;99.90
19970;DHT22;10146;47.754;9.566;2023-08-20T06:39:27;22.80;99.90
19970;DHT22;10146;47.754;9.566;2023-08-20T06:41:53;22.80;99.90
19970;DHT22;10146;47.754;9.566;2023-08-20T06:44:18;22.80;99.90
19970;DHT22;10146;47.754;9.566;2023-08-20T06:46:44;23.10;99.90
19970;DHT22;10146;47.754;9.566;2023-08-20T06:49:09;23.20;99.90
19970;DHT22;10146;47.754;9.566;2023-08-20T06:51:35;23.10;99.90
19970;DHT22;10146;47.754;9.566;2023-08-20T06:54:01;23.20;99.90
19970;DHT22;10146;47.754;9.566;2023-08-20T06:56:27;23.30;99.90
19970;DHT22;10146;47.754;9.566;2023-08-20T06:58:52;23.50;99.90
19970;DHT22;10146;47.754;9.566;2023-08-20T07:01:19;23.50;99.90
19970;DHT22;10146;47.754;9.566;2023-08-20T07:03:45;23.60;99.90
19970;DHT22;10146;47.754;9.566;2023-08-20T07:06:11;23.50;99.90
19970;DHT22;10146;47.754;9.566;2023-08-20T07:08:37;23.60;99.90
19970;DHT22;10146;47.754;9.566;2023-08-20T07:11:06;23.60;99.90
19970;DHT22;10146;47.754;9.566;2023-08-20T07:13:32;23.70;99.90
19970;DHT22;10146;47.754;9.566;2023-08-20T07:15:57;23.60;99.90
19970;DHT22;10146;47.754;9.566;2023-08-20T07:18:23;23.70;99.90
19970;DHT22;10146;47.754;9.566;2023-08-20T07:20:50;23.70;99.90
19970;DHT22;10146;47.754;9.566;2023-08-20T07:23:15;23.80;99.90
19970;DHT22;10146;47.754;9.566;2023-08-20T07:25:41;23.90;99.90
19970;DHT22;10146;47.754;9.566;2023-08-20T07:28:08;23.90;99.90
19970;DHT22;10146;47.754;9.566;2023-08-20T07:30:34;24.10;99.90
19970;DHT22;10146;47.754;9.566;2023-08-20T07:33:01;24.30;99.90
19970;DHT22;10146;47.754;9.566;2023-08-20T07:35:27;24.30;99.90
19970;DHT22;10146;47.754;9.566;2023-08-20T07:37:52;24.30;99.90
19970;DHT22;10146;47.754;9.566;2023-08-20T07:40:18;24.30;99.90
19970;DHT22;10146;47.754;9.566;2023-08-20T07:42:44;24.40;99.90
19970;DHT22;10146;47.754;9.566;2023-08-20T07:45:10;24.40;99.90
19970;DHT22;10146;47.754;9.566;2023-08-20T07:47:40;24.40;99.90
19970;DHT22;10146;47.754;9.566;2023-08-20T07:50:06;24.30;99.90
19970;DHT22;10146;47.754;9.566;2023-08-20T07:52:32;24.30;99.90
19970;DHT22;10146;47.754;9.566;2023-08-20T07:54:58;24.40;99.90
19970;DHT22;10146;47.754;9.566;2023-08-20T07:57:23;24.40;99.90
19970;DHT22;10146;47.754;9.566;2023-08-20T07:59:52;24.50;99.90
19970;DHT22;10146;47.754;9.566;2023-08-20T08:02:18;24.60;99.90
19970;DHT22;10146;47.754;9.566;2023-08-20T08:04:44;24.70;99.90
19970;DHT22;10146;47.754;9.566;2023-08-20T08:07:12;24.70;99.90
19970;DHT22;10146;47.754;9.566;2023-08-20T08:09:38;24.70;99.90
19970;DHT22;10146;47.754;9.566;2023-08-20T08:12:04;24.80;99.90
19970;DHT22;10146;47.754;9.566;2023-08-20T08:14:30;24.90;99.90
19970;DHT22;10146;47.754;9.566;2023-08-20T08:16:56;24.90;99.90
19970;DHT22;10146;47.754;9.566;2023-08-20T08:19:22;24.80;99.90
19970;DHT22;10146;47.754;9.566;2023-08-20T08:21:48;24.80;99.90
19970;DHT22;10146;47.754;9.566;2023-08-20T08:24:14;24.80;99.90
19970;DHT22;10146;47.754;9.566;2023-08-20T08:26:40;25.00;99.90
19970;DHT22;10146;47.754;9.566;2023-08-20T08:29:07;25.20;99.90
19970;DHT22;10146;47.754;9.566;2023-08-20T08:31:33;25.40;99.90
19970;DHT22;10146;47.754;9.566;2023-08-20T08:33:59;25.60;99.90
19970;DHT22;10146;47.754;9.566;2023-08-20T08:36:25;25.60;99.90
19970;DHT22;10146;47.754;9.566;2023-08-20T08:38:51;25.70;99.90
19970;DHT22;10146;47.754;9.566;2023-08-20T08:41:17;25.60;99.90
19970;DHT22;10146;47.754;9.566;2023-08-20T08:43:46;25.50;99.90
19970;DHT22;10146;47.754;9.566;2023-08-20T08:46:13;25.50;99.90
19970;DHT22;10146;47.754;9.566;2023-08-20T08:48:43;25.50;99.90
19970;DHT22;10146;47.754;9.566;2023-08-20T08:51:09;25.60;99.90
19970;DHT22;10146;47.754;9.566;2023-08-20T08:53:35;25.70;99.90
19970;DHT22;10146;47.754;9.566;2023-08-20T08:56:01;25.70;99.90
19970;DHT22;10146;47.754;9.566;2023-08-20T08:58:28;25.90;99.90
19970;DHT22;10146;47.754;9.566;2023-08-20T09:00:54;25.90;99.90
19970;DHT22;10146;47.754;9.566;2023-08-20T09:03:20;26.00;99.90
19970;DHT22;10146;47.754;9.566;2023-08-20T09:05:49;25.90;99.90
19970;DHT22;10146;47.754;9.566;2023-08-20T09:08:23;26.00;99.90
19970;DHT22;10146;47.754;9.566;2023-08-20T09:10:52;26.10;99.90
19970;DHT22;10146;47.754;9.566;2023-08-20T09:13:23;26.30;99.90
19970;DHT22;10146;47.754;9.566;2023-08-20T09:15:51;26.40;99.90
19970;DHT22;10146;47.754;9.566;2023-08-20T09:18:17;26.50;99.90
19970;DHT22;10146;47.754;9.566;2023-08-20T09:20:43;26.50;99.90
19970;DHT22;10146;47.754;9.566;2023-08-20T09:23:12;26.70;99.90
19970;DHT22;10146;47.754;9.566;2023-08-20T09:25:40;26.80;99.90
19970;DHT22;10146;47.754;9.566;2023-08-20T09:28:06;26.80;99.90
19970;DHT22;10146;47.754;9.566;2023-08-20T09:30:32;26.90;99.90
19970;DHT22;10146;47.754;9.566;2023-08-20T09:33:07;26.90;99.90
19970;DHT22;10146;47.754;9.566;2023-08-20T09:35:33;27.00;99.90
19970;DHT22;10146;47.754;9.566;2023-08-20T09:38:02;27.10;99.90
19970;DHT22;10146;47.754;9.566;2023-08-20T09:40:29;27.20;99.90
19970;DHT22;10146;47.754;9.566;2023-08-20T09:42:55;27.30;99.90
19970;DHT22;10146;47.754;9.566;2023-08-20T09:45:21;27.40;99.90
19970;DHT22;10146;47.754;9.566;2023-08-20T09:47:49;27.60;99.90
19970;DHT22;10146;47.754;9.566;2023-08-20T09:50:17;27.70;99.90
19970;DHT22;10146;47.754;9.566;2023-08-20T09:52:58;27.70;99.90
19970;DHT22;10146;47.754;9.566;2023-08-20T09:55:30;27.80;99.90
19970;DHT22;10146;47.754;9.566;2023-08-20T09:57:58;27.90;99.90
19970;DHT22;10146;47.754;9.566;2023-08-20T10:00:25;28.00;99.90
19970;DHT22;10146;47.754;9.566;2023-08-20T10:02:52;28.10;99.90
19970;DHT22;10146;47.754;9.566;2023-08-20T10:05:19;28.30;99.90
19970;DHT22;10146;47.754;9.566;2023-08-20T10:07:47;28.50;99.90
19970;DHT22;10146;47.754;9.566;2023-08-20T10:10:14;28.70;99.90
19970;DHT22;10146;47.754;9.566;2023-08-20T10:12:40;28.90;99.90
19970;DHT22;10146;47.754;9.566;2023-08-20T10:15:08;29.00;99.90
19970;DHT22;10146;47.754;9.566;2023-08-20T10:17:35;29.10;99.90
19970;DHT22;10146;47.754;9.566;2023-08-20T10:20:03;29.20;99.90
19970;DHT22;10146;47.754;9.566;2023-08-20T10:22:43;29.40;99.90
19970;DHT22;10146;47.754;9.566;2023-08-20T10:25:24;29.50;99.90
19970;DHT22;10146;47.754;9.566;2023-08-20T10:27:51;29.50;99.90
19970;DHT22;10146;47.754;9.566;2023-08-20T10:30:19;29.50;99.90
19970;DHT22;10146;47.754;9.566;2023-08-20T10:32:52;29.60;99.90
19970;DHT22;10146;47.754;9.566;2023-08-20T10:35:47;29.70;99.90
19970;DHT22;10146;47.754;9.566;2023-08-20T10:38:17;29.60;99.90
19970;DHT22;10146;47.754;9.566;2023-08-20T10:40:52;29.60;99.90
19970;DHT22;10146;47.754;9.566;2023-08-20T10:43:28;29.70;99.90
19970;DHT22;10146;47.754;9.566;2023-08-20T10:48:37;29.90;99.90
19970;DHT22;10146;47.754;9.566;2023-08-20T10:51:18;30.10;99.90
19970;DHT22;10146;47.754;9.566;2023-08-20T10:54:01;30.20;99.90
19970;DHT22;10146;47.754;9.566;2023-08-20T10:59:14;30.30;99.90
19970;DHT22;10146;47.754;9.566;2023-08-20T11:01:44;30.50;99.90
19970;DHT22;10146;47.754;9.566;2023-08-20T11:04:11;30.60;99.90
19970;DHT22;10146;47.754;9.566;2023-08-20T11:06:38;30.80;99.90
19970;DHT22;10146;47.754;9.566;2023-08-20T11:09:04;30.80;99.90
19970;DHT22;10146;47.754;9.566;2023-08-20T11:11:31;30.90;99.90
19970;DHT22;10146;47.754;9.566;2023-08-20T11:14:03;31.00;99.90
19970;DHT22;10146;47.754;9.566;2023-08-20T11:16:29;31.00;98.20
19970;DHT22;10146;47.754;9.566;2023-08-20T11:18:57;31.10;98.40
19970;DHT22;10146;47.754;9.566;2023-08-20T11:21:23;31.10;99.20
19970;DHT22;10146;47.754;9.566;2023-08-20T11:23:48;31.30;96.10
19970;DHT22;10146;47.754;9.566;2023-08-20T11:26:14;31.50;95.60
19970;DHT22;10146;47.754;9.566;2023-08-20T11:28:45;31.70;95.50
19970;DHT22;10146;47.754;9.566;2023-08-20T11:31:12;31.70;94.80
19970;DHT22;10146;47.754;9.566;2023-08-20T11:33:37;31.80;95.30
19970;DHT22;10146;47.754;9.566;2023-08-20T11:36:05;31.90;94.60
19970;DHT22;10146;47.754;9.566;2023-08-20T11:38:30;31.90;94.20
19970;DHT22;10146;47.754;9.566;2023-08-20T11:40:58;31.90;92.70
19970;DHT22;10146;47.754;9.566;2023-08-20T11:43:28;32.00;91.50
19970;DHT22;10146;47.754;9.566;2023-08-20T11:45:54;32.10;90.50
19970;DHT22;10146;47.754;9.566;2023-08-20T11:48:20;32.20;88.40
19970;DHT22;10146;47.754;9.566;2023-08-20T11:50:52;32.10;88.70
19970;DHT22;10146;47.754;9.566;2023-08-20T11:53:23;32.30;82.10
19970;DHT22;10146;47.754;9.566;2023-08-20T11:55:49;32.50;81.60
19970;DHT22;10146;47.754;9.566;2023-08-20T11:58:14;32.70;82.60
19970;DHT22;10146;47.754;9.566;2023-08-20T12:00:40;32.70;84.40
19970;DHT22;10146;47.754;9.566;2023-08-20T12:03:08;32.80;81.70
19970;DHT22;10146;47.754;9.566;2023-08-20T12:05:34;32.80;83.50
19970;DHT22;10146;47.754;9.566;2023-08-20T12:08:03;32.90;85.90
19970;DHT22;10146;47.754;9.566;2023-08-20T12:10:30;32.90;86.20
19970;DHT22;10146;47.754;9.566;2023-08-20T12:12:57;33.00;89.00
19970;DHT22;10146;47.754;9.566;2023-08-20T12:15:24;33.00;88.70
19970;DHT22;10146;47.754;9.566;2023-08-20T12:20:27;33.40;88.90
19970;DHT22;10146;47.754;9.566;2023-08-20T12:22:53;33.50;87.50
19970;DHT22;10146;47.754;9.566;2023-08-20T12:25:19;33.60;86.30
19970;DHT22;10146;47.754;9.566;2023-08-20T12:27:44;33.60;87.90
19970;DHT22;10146;47.754;9.566;2023-08-20T12:30:11;33.70;81.80
19970;DHT22;10146;47.754;9.566;2023-08-20T12:32:36;33.80;83.70
19970;DHT22;10146;47.754;9.566;2023-08-20T12:35:02;33.90;82.10
19970;DHT22;10146;47.754;9.566;2023-08-20T12:37:28;33.90;80.60
19970;DHT22;10146;47.754;9.566;2023-08-20T12:39:53;33.90;82.10
19970;DHT22;10146;47.754;9.566;2023-08-20T12:42:19;34.10;81.60
19970;DHT22;10146;47.754;9.566;2023-08-20T12:44:45;34.20;81.70
19970;DHT22;10146;47.754;9.566;2023-08-20T12:47:10;34.30;84.10
19970;DHT22;10146;47.754;9.566;2023-08-20T12:49:36;34.30;81.50
19970;DHT22;10146;47.754;9.566;2023-08-20T12:52:02;34.30;81.80
19970;DHT22;10146;47.754;9.566;2023-08-20T12:54:28;34.20;82.80
19970;DHT22;10146;47.754;9.566;2023-08-20T12:56:54;34.40;81.90
19970;DHT22;10146;47.754;9.566;2023-08-20T12:59:20;34.50;83.40
19970;DHT22;10146;47.754;9.566;2023-08-20T13:01:46;34.60;82.00
19970;DHT22;10146;47.754;9.566;2023-08-20T13:04:12;34.90;80.70
19970;DHT22;10146;47.754;9.566;2023-08-20T13:06:38;35.10;79.40
19970;DHT22;10146;47.754;9.566;2023-08-20T13:09:05;35.30;82.00
19970;DHT22;10146;47.754;9.566;2023-08-20T13:11:32;35.50;79.40
19970;DHT22;10146;47.754;9.566;2023-08-20T13:13:58;35.50;78.80
19970;DHT22;10146;47.754;9.566;2023-08-20T13:16:24;35.60;77.30
19970;DHT22;10146;47.754;9.566;2023-08-20T13:18:50;35.70;77.70
19970;DHT22;10146;47.754;9.566;2023-08-20T13:21:15;35.90;75.90
19970;DHT22;10146;47.754;9.566;2023-08-20T13:23:41;35.90;76.50
19970;DHT22;10146;47.754;9.566;2023-08-20T13:26:07;35.90;76.20
19970;DHT22;10146;47.754;9.566;2023-08-20T13:28:32;35.90;77.00
19970;DHT22;10146;47.754;9.566;2023-08-20T13:30:58;35.90;76.10
19970;DHT22;10146;47.754;9.566;2023-08-20T13:33:23;35.90;77.00
19970;DHT22;10146;47.754;9.566;2023-08-20T13:35:49;36.00;76.40
19970;DHT22;10146;47.754;9.566;2023-08-20T13:38:15;36.10;75.60
19970;DHT22;10146;47.754;9.566;2023-08-20T13:40:40;36.10;74.80
19970;DHT22;10146;47.754;9.566;2023-08-20T13:43:06;36.40;72.70
19970;DHT22;10146;47.754;9.566;2023-08-20T13:45:32;36.60;70.60
19970;DHT22;10146;47.754;9.566;2023-08-20T13:47:57;36.70;70.10
19970;DHT22;10146;47.754;9.566;2023-08-20T13:50:23;37.00;69.40
19970;DHT22;10146;47.754;9.566;2023-08-20T13:52:49;37.00;70.40
19970;DHT22;10146;47.754;9.566;2023-08-20T13:55:14;36.90;71.20
19970;DHT22;10146;47.754;9.566;2023-08-20T13:57:40;37.00;69.40
19970;DHT22;10146;47.754;9.566;2023-08-20T14:00:06;37.00;70.10
19970;DHT22;10146;47.754;9.566;2023-08-20T14:02:35;37.10;68.20
19970;DHT22;10146;47.754;9.566;2023-08-20T14:05:01;37.40;68.00
19970;DHT22;10146;47.754;9.566;2023-08-20T14:07:26;37.20;65.80
19970;DHT22;10146;47.754;9.566;2023-08-20T14:09:53;37.30;65.10
19970;DHT22;10146;47.754;9.566;2023-08-20T14:12:18;37.30;66.50
19970;DHT22;10146;47.754;9.566;2023-08-20T14:14:45;37.50;66.80
19970;DHT22;10146;47.754;9.566;2023-08-20T14:17:11;37.40;66.30
19970;DHT22;10146;47.754;9.566;2023-08-20T14:19:36;37.50;66.70
19970;DHT22;10146;47.754;9.566;2023-08-20T14:22:02;37.70;64.80
19970;DHT22;10146;47.754;9.566;2023-08-20T14:24:27;37.50;65.20
19970;DHT22;10146;47.754;9.566;2023-08-20T14:26:53;37.60;64.70
19970;DHT22;10146;47.754;9.566;2023-08-20T14:29:18;37.80;63.70
19970;DHT22;10146;47.754;9.566;2023-08-20T14:31:44;37.90;63.00
19970;DHT22;10146;47.754;9.566;2023-08-20T14:34:10;37.90;62.30
19970;DHT22;10146;47.754;9.566;2023-08-20T14:36:36;38.10;60.20
19970;DHT22;10146;47.754;9.566;2023-08-20T14:39:01;38.10;61.70
19970;DHT22;10146;47.754;9.566;2023-08-20T14:41:27;38.10;61.90
19970;DHT22;10146;47.754;9.566;2023-08-20T14:43:52;38.30;60.90
19970;DHT22;10146;47.754;9.566;2023-08-20T14:46:18;38.20;61.30
19970;DHT22;10146;47.754;9.566;2023-08-20T14:48:44;38.40;59.50
19970;DHT22;10146;47.754;9.566;2023-08-20T14:51:10;38.50;59.70
19970;DHT22;10146;47.754;9.566;2023-08-20T14:53:35;38.50;60.00
19970;DHT22;10146;47.754;9.566;2023-08-20T14:56:01;38.60;60.30
19970;DHT22;10146;47.754;9.566;2023-08-20T14:58:28;38.70;60.80
19970;DHT22;10146;47.754;9.566;2023-08-20T15:00:54;38.70;60.10
19970;DHT22;10146;47.754;9.566;2023-08-20T15:03:19;38.70;60.50
19970;DHT22;10146;47.754;9.566;2023-08-20T15:05:45;38.80;58.50
19970;DHT22;10146;47.754;9.566;2023-08-20T15:08:11;38.70;58.50
19970;DHT22;10146;47.754;9.566;2023-08-20T15:10:36;38.60;59.40
19970;DHT22;10146;47.754;9.566;2023-08-20T15:13:02;38.70;58.70
19970;DHT22;10146;47.754;9.566;2023-08-20T15:15:28;38.70;57.50
19970;DHT22;10146;47.754;9.566;2023-08-20T15:17:54;38.80;57.40
19970;DHT22;10146;47.754;9.566;2023-08-20T15:20:20;39.00;56.50
19970;DHT22;10146;47.754;9.566;2023-08-20T15:22:46;38.90;57.90
19970;DHT22;10146;47.754;9.566;2023-08-20T15:25:11;38.70;57.90
19970;DHT22;10146;47.754;9.566;2023-08-20T15:27:38;38.40;57.60
19970;DHT22;10146;47.754;9.566;2023-08-20T15:30:04;38.20;58.00
19970;DHT22;10146;47.754;9.566;2023-08-20T15:32:31;38.40;57.40
19970;DHT22;10146;47.754;9.566;2023-08-20T15:34:56;38.20;56.60
19970;DHT22;10146;47.754;9.566;2023-08-20T15:37:22;38.10;57.90
19970;DHT22;10146;47.754;9.566;2023-08-20T15:39:48;37.80;60.30
19970;DHT22;10146;47.754;9.566;2023-08-20T15:42:13;37.60;61.80